Belokurikha, Russia
Current Conditions -  °F | °C
As of 3:30 PM on Friday 24 Oct 2014 (Local Time) from UNBB Reporting Station
Broken Clouds Broken Clouds  
Wind Chill: 40°   Ceiling: 2000
Heat Index: 46°   Visibility: 6mi
Dew Point: 39°   Wind: 13mph
Humidity: 76%   Direction: 230°SW
Pressure: 29.91"   Gusts: NA
Location:  51.99°N, 84.99°E
Report Text: UNBB 240830Z 23006MPS 9999 BKN020CB 08/04 Q1013 NOSIG RMKQFE737/0983 24190057
Loading
Personal Weather Stations






























Interactive Weather Map
Tropical Storm Tracking
New forecast layout! Learn more

10-Day Weather Forecast

Advertisements
Track Severe Weather on mobile